createdAt,value
2023-01-06T00:01:34.276Z,4.20
2023-01-06T00:04:03.452Z,4.30
2023-01-06T00:06:32.461Z,4.40
2023-01-06T00:09:02.611Z,4.40
2023-01-06T00:11:31.180Z,4.40
2023-01-06T00:14:01.692Z,4.50
2023-01-06T00:16:30.317Z,4.50
2023-01-06T00:19:00.354Z,4.40
2023-01-06T00:21:29.179Z,4.40
2023-01-06T00:23:58.234Z,4.40
2023-01-06T00:26:26.561Z,4.40
2023-01-06T00:28:56.155Z,4.40
2023-01-06T00:31:25.883Z,4.30
2023-01-06T00:33:56.189Z,4.30
2023-01-06T00:36:25.288Z,4.30
2023-01-06T00:38:53.609Z,4.20
2023-01-06T00:41:39.925Z,4.20
2023-01-06T00:44:08.902Z,4.10
2023-01-06T00:46:38.703Z,4.10
2023-01-06T00:49:07.842Z,4.00
2023-01-06T00:51:37.524Z,4.00
2023-01-06T00:54:06.194Z,4.00
2023-01-06T00:56:40.302Z,4.00
2023-01-06T00:59:09.038Z,3.90
2023-01-06T01:01:39.200Z,3.90
2023-01-06T01:04:08.430Z,3.90
2023-01-06T01:06:37.476Z,3.80
2023-01-06T01:09:08.438Z,3.90
2023-01-06T01:11:54.406Z,3.90
2023-01-06T01:14:23.227Z,4.00
2023-01-06T01:16:53.162Z,4.00
2023-01-06T01:19:21.766Z,4.10
2023-01-06T01:21:50.112Z,4.10
2023-01-06T01:24:19.038Z,4.20
2023-01-06T01:26:47.767Z,4.20
2023-01-06T01:29:17.972Z,4.20
2023-01-06T01:31:47.185Z,4.30
2023-01-06T01:34:18.383Z,4.30
2023-01-06T01:36:48.748Z,4.40
2023-01-06T01:39:19.541Z,4.40
2023-01-06T01:41:48.289Z,4.40
2023-01-06T01:44:54.336Z,4.40
2023-01-06T01:47:28.547Z,4.40
2023-01-06T01:50:01.821Z,4.50
2023-01-06T01:52:30.665Z,4.50
2023-01-06T01:54:59.111Z,4.50
2023-01-06T01:57:32.950Z,4.60
2023-01-06T02:00:02.430Z,4.60
2023-01-06T02:02:33.126Z,4.60
2023-01-06T02:05:03.569Z,4.60
2023-01-06T02:07:32.178Z,4.70
2023-01-06T02:10:09.492Z,4.70
2023-01-06T02:12:38.468Z,4.70
2023-01-06T02:15:17.680Z,4.70
2023-01-06T02:18:13.333Z,4.70
2023-01-06T02:21:03.336Z,4.70
2023-01-06T02:24:10.537Z,4.60
2023-01-06T02:27:17.999Z,4.60
2023-01-06T02:30:38.389Z,4.60
2023-01-06T02:33:18.778Z,4.70
2023-01-06T02:36:01.944Z,4.70
2023-01-06T02:38:41.930Z,4.70
2023-01-06T02:41:17.932Z,4.70
2023-01-06T02:43:53.253Z,4.80
2023-01-06T02:46:36.429Z,4.80
2023-01-06T02:49:14.114Z,4.80
2023-01-06T02:51:48.112Z,4.80
2023-01-06T02:54:22.894Z,4.80
2023-01-06T02:56:55.957Z,4.90
2023-01-06T02:59:28.452Z,4.90
2023-01-06T03:01:58.299Z,4.90
2023-01-06T03:04:33.017Z,4.90
2023-01-06T03:07:03.530Z,4.90
2023-01-06T03:09:37.842Z,4.90
2023-01-06T03:12:14.636Z,4.90
2023-01-06T03:14:46.970Z,4.90
2023-01-06T03:17:15.688Z,4.90
2023-01-06T03:19:46.451Z,4.90
2023-01-06T03:22:17.147Z,4.90
2023-01-06T03:24:46.748Z,4.90
2023-01-06T03:27:15.745Z,4.90
2023-01-06T03:29:44.135Z,4.90
2023-01-06T03:32:19.794Z,4.90
2023-01-06T03:35:16.326Z,4.90
2023-01-06T03:37:54.297Z,4.80
2023-01-06T03:40:33.345Z,4.80
2023-01-06T03:43:16.557Z,4.80
2023-01-06T03:45:58.502Z,4.90
2023-01-06T03:48:37.784Z,4.90
2023-01-06T03:51:14.481Z,4.90
2023-01-06T03:53:48.230Z,4.80
2023-01-06T03:56:23.305Z,4.90
2023-01-06T03:58:56.760Z,4.90
2023-01-06T04:01:26.815Z,4.90
2023-01-06T04:03:55.662Z,4.80
2023-01-06T04:06:25.566Z,4.90
2023-01-06T04:08:53.998Z,4.90
2023-01-06T04:11:39.954Z,4.90
2023-01-06T04:14:08.225Z,4.90
2023-01-06T04:16:36.653Z,4.90
2023-01-06T04:19:05.049Z,4.90
2023-01-06T04:21:34.644Z,4.90
2023-01-06T04:24:02.968Z,4.90
2023-01-06T04:26:31.359Z,4.90
2023-01-06T04:28:59.796Z,4.90
2023-01-06T04:31:28.165Z,4.90
2023-01-06T04:33:56.539Z,4.90
2023-01-06T04:36:24.899Z,4.90
2023-01-06T04:38:54.635Z,5.00
2023-01-06T04:41:22.959Z,5.00
2023-01-06T04:43:51.255Z,5.00
2023-01-06T04:46:19.678Z,5.00
2023-01-06T04:48:48.076Z,5.00
2023-01-06T04:51:16.317Z,5.00
2023-01-06T04:53:44.792Z,5.00
2023-01-06T04:56:14.881Z,5.00
2023-01-06T04:58:43.389Z,5.00
2023-01-06T05:01:13.943Z,5.00
2023-01-06T05:03:43.121Z,5.00
2023-01-06T05:06:13.020Z,5.00
2023-01-06T05:08:43.362Z,5.00
2023-01-06T05:11:14.988Z,5.00
2023-01-06T05:13:43.334Z,5.00
2023-01-06T05:16:14.929Z,5.00
2023-01-06T05:18:43.704Z,4.90
2023-01-06T05:21:12.266Z,4.90
2023-01-06T05:23:41.501Z,4.90
2023-01-06T05:26:16.680Z,4.90
2023-01-06T05:28:46.909Z,4.90
2023-01-06T05:31:15.763Z,4.90
2023-01-06T05:33:43.966Z,4.90
2023-01-06T05:36:14.352Z,4.90
2023-01-06T05:38:42.957Z,4.90
2023-01-06T05:41:11.572Z,4.90
2023-01-06T05:43:39.701Z,4.90
2023-01-06T05:46:11.042Z,4.90
2023-01-06T05:48:40.237Z,5.00
2023-01-06T05:51:10.145Z,4.90
2023-01-06T05:53:40.058Z,4.90
2023-01-06T05:56:10.292Z,4.90
2023-01-06T05:58:40.309Z,4.90
2023-01-06T06:01:17.878Z,5.10
2023-01-06T06:03:46.188Z,4.90
2023-01-06T06:06:14.500Z,5.00
2023-01-06T06:08:42.822Z,5.00
2023-01-06T06:11:12.939Z,5.00
2023-01-06T06:13:45.934Z,5.00
2023-01-06T06:16:17.609Z,5.00
2023-01-06T06:18:49.365Z,5.00
2023-01-06T06:21:19.882Z,5.10
2023-01-06T06:23:48.091Z,5.10
2023-01-06T06:26:17.100Z,5.10
2023-01-06T06:28:45.187Z,5.10
2023-01-06T06:31:17.756Z,5.10
2023-01-06T06:33:45.931Z,5.10
2023-01-06T06:36:15.911Z,5.10
2023-01-06T06:38:44.652Z,5.00
2023-01-06T06:41:13.371Z,5.00
2023-01-06T06:43:41.740Z,5.10
2023-01-06T06:46:10.711Z,5.10
2023-01-06T06:48:40.480Z,5.10
2023-01-06T06:51:10.399Z,5.10
2023-01-06T06:53:39.175Z,5.10
2023-01-06T06:56:08.691Z,5.10
2023-01-06T06:58:38.178Z,5.20
2023-01-06T07:01:06.810Z,5.10
2023-01-06T07:03:35.099Z,5.20
2023-01-06T07:06:05.234Z,5.20
2023-01-06T07:08:34.206Z,5.20
2023-01-06T07:11:03.019Z,5.20
2023-01-06T07:13:31.231Z,5.20
2023-01-06T07:15:59.366Z,5.20
2023-01-06T07:18:27.516Z,5.30
2023-01-06T07:20:55.650Z,5.30
2023-01-06T07:23:25.728Z,5.30
2023-01-06T07:25:54.447Z,5.30
2023-01-06T07:28:22.990Z,5.30
2023-01-06T07:30:51.384Z,5.40
2023-01-06T07:33:20.531Z,5.40
2023-01-06T07:35:48.939Z,5.40
2023-01-06T07:38:17.078Z,5.40
2023-01-06T07:40:46.546Z,5.50
2023-01-06T07:43:14.763Z,5.50
2023-01-06T07:45:42.894Z,5.50
2023-01-06T07:48:11.216Z,5.50
2023-01-06T07:50:39.278Z,5.60
2023-01-06T07:53:07.331Z,5.60
2023-01-06T07:55:35.485Z,5.60
2023-01-06T07:58:07.559Z,5.60
2023-01-06T08:00:36.048Z,5.60
2023-01-06T08:03:06.209Z,5.70
2023-01-06T08:05:37.401Z,5.70
2023-01-06T08:08:05.812Z,5.70
2023-01-06T08:10:34.121Z,5.70
2023-01-06T08:13:02.332Z,5.70
2023-01-06T08:15:32.100Z,5.80
2023-01-06T08:18:00.324Z,5.80
2023-01-06T08:20:28.468Z,5.80
2023-01-06T08:22:58.300Z,5.80
2023-01-06T08:25:26.606Z,5.90
2023-01-06T08:27:54.766Z,5.90
2023-01-06T08:30:22.858Z,5.90
2023-01-06T08:32:53.534Z,5.90
2023-01-06T08:35:21.602Z,5.90
2023-01-06T08:37:49.745Z,6.00
2023-01-06T08:40:19.283Z,6.00
2023-01-06T08:42:47.533Z,6.00
2023-01-06T08:45:15.698Z,6.00
2023-01-06T08:47:43.821Z,6.10
2023-01-06T08:50:13.376Z,6.10
2023-01-06T08:52:41.601Z,6.10
2023-01-06T08:55:09.847Z,6.10
2023-01-06T08:57:38.072Z,6.20
2023-01-06T09:00:07.483Z,6.20
2023-01-06T09:02:35.593Z,6.30
2023-01-06T09:05:03.873Z,6.30
2023-01-06T09:07:33.488Z,6.30
2023-01-06T09:10:01.724Z,6.30
2023-01-06T09:12:30.004Z,6.60
2023-01-06T09:14:58.175Z,6.40
2023-01-06T09:17:26.481Z,6.40
2023-01-06T09:19:54.688Z,6.40
2023-01-06T09:22:22.946Z,6.50
2023-01-06T09:24:52.560Z,6.50
2023-01-06T09:27:22.774Z,6.60
2023-01-06T09:29:51.779Z,6.60
2023-01-06T09:32:20.075Z,6.60
2023-01-06T09:34:48.283Z,6.70
2023-01-06T09:37:16.770Z,6.70
2023-01-06T09:39:44.915Z,6.80
2023-01-06T09:42:37.182Z,6.80
2023-01-06T09:45:07.574Z,6.90
2023-01-06T09:47:40.776Z,6.90
2023-01-06T09:50:15.824Z,6.90
2023-01-06T09:52:48.824Z,7.00
2023-01-06T09:55:20.693Z,7.00
2023-01-06T09:57:54.049Z,7.00
2023-01-06T10:00:33.675Z,7.00
2023-01-06T10:03:02.207Z,7.00
2023-01-06T10:05:38.935Z,7.10
2023-01-06T10:08:15.778Z,7.10
2023-01-06T10:10:52.097Z,7.20
2023-01-06T10:13:34.876Z,7.30
2023-01-06T10:16:11.245Z,7.20
2023-01-06T10:18:49.946Z,7.30
2023-01-06T10:21:27.366Z,7.30
2023-01-06T10:24:22.313Z,7.40
2023-01-06T10:26:54.293Z,7.40
2023-01-06T10:29:26.782Z,7.50
2023-01-06T10:31:55.841Z,7.70
2023-01-06T10:34:26.423Z,7.70
2023-01-06T10:37:02.705Z,7.80
2023-01-06T10:39:32.949Z,7.80
2023-01-06T10:42:29.523Z,7.90
2023-01-06T10:44:59.095Z,8.00
2023-01-06T10:47:30.642Z,8.00
2023-01-06T10:49:59.643Z,8.10
2023-01-06T10:52:28.801Z,8.20
2023-01-06T10:55:01.204Z,8.30
2023-01-06T10:57:34.334Z,8.30
2023-01-06T11:00:16.445Z,8.40
2023-01-06T11:02:50.134Z,8.50
2023-01-06T11:05:20.760Z,8.60
2023-01-06T11:07:56.277Z,8.70
2023-01-06T11:10:30.202Z,8.70
2023-01-06T11:13:01.245Z,8.70
2023-01-06T11:15:37.736Z,8.70
2023-01-06T11:18:06.900Z,8.70
2023-01-06T11:20:36.331Z,8.70
2023-01-06T11:23:23.918Z,8.60
2023-01-06T11:26:15.387Z,8.60
2023-01-06T11:28:44.782Z,8.60
2023-01-06T11:31:20.763Z,8.60
2023-01-06T11:33:52.972Z,8.60
2023-01-06T11:36:23.333Z,8.60
2023-01-06T11:38:56.891Z,8.60
2023-01-06T11:41:29.224Z,8.60
2023-01-06T11:44:05.070Z,8.60
2023-01-06T11:46:34.919Z,8.60
2023-01-06T11:49:07.481Z,8.60
2023-01-06T11:51:50.325Z,8.70
2023-01-06T11:54:33.703Z,8.70
2023-01-06T11:57:04.838Z,8.80
2023-01-06T11:59:46.654Z,8.80
2023-01-06T12:02:24.118Z,8.80
2023-01-06T12:04:54.706Z,8.80
2023-01-06T12:07:30.416Z,8.80
2023-01-06T12:10:06.074Z,8.90
2023-01-06T12:12:34.248Z,8.90
2023-01-06T12:15:03.513Z,8.90
2023-01-06T12:17:41.228Z,9.00
2023-01-06T12:20:17.961Z,9.00
2023-01-06T12:22:49.025Z,9.10
2023-01-06T12:25:22.192Z,9.10
2023-01-06T12:27:54.695Z,9.10
2023-01-06T12:30:30.381Z,9.10
2023-01-06T12:33:06.581Z,9.10
2023-01-06T12:35:37.751Z,9.10
2023-01-06T12:38:15.513Z,9.20
2023-01-06T12:40:51.298Z,9.30
2023-01-06T12:43:21.359Z,9.30
2023-01-06T12:45:57.968Z,9.40
2023-01-06T12:48:37.094Z,9.40
2023-01-06T12:51:12.023Z,9.50
2023-01-06T12:53:44.201Z,9.50
2023-01-06T12:56:28.586Z,9.50
2023-01-06T12:59:10.866Z,9.60
2023-01-06T13:01:46.447Z,9.60
2023-01-06T13:04:36.838Z,9.60
2023-01-06T13:07:15.608Z,9.60
2023-01-06T13:09:57.023Z,9.70
2023-01-06T13:12:42.905Z,9.70
2023-01-06T13:15:18.299Z,9.70
2023-01-06T13:17:55.052Z,9.70
2023-01-06T13:20:29.898Z,9.70
2023-01-06T13:23:10.479Z,9.70
2023-01-06T13:26:18.774Z,9.70
2023-01-06T13:28:58.024Z,9.70
2023-01-06T13:31:57.041Z,9.70
2023-01-06T13:35:07.603Z,9.70
2023-01-06T13:37:42.272Z,9.70
2023-01-06T13:40:16.884Z,9.70
2023-01-06T13:42:49.281Z,9.70
2023-01-06T13:45:21.990Z,9.70
2023-01-06T13:47:51.795Z,9.70
2023-01-06T13:50:22.865Z,9.70
2023-01-06T13:52:53.075Z,9.70
2023-01-06T13:55:28.690Z,9.80
2023-01-06T13:57:57.528Z,9.80
2023-01-06T14:00:28.139Z,9.50
2023-01-06T14:03:25.785Z,9.80
2023-01-06T14:05:58.797Z,9.80
2023-01-06T14:08:35.445Z,9.90
2023-01-06T14:11:06.924Z,9.90
2023-01-06T14:13:40.116Z,9.90
2023-01-06T14:16:11.989Z,9.90
2023-01-06T14:18:43.014Z,9.90
2023-01-06T14:21:35.544Z,9.90
2023-01-06T14:24:07.953Z,9.90
2023-01-06T14:26:50.655Z,9.90
2023-01-06T14:29:55.933Z,9.80
2023-01-06T14:33:12.656Z,9.80
2023-01-06T14:35:44.246Z,9.70
2023-01-06T14:38:30.154Z,9.70
2023-01-06T14:41:03.949Z,9.60
2023-01-06T14:43:46.209Z,9.70
2023-01-06T14:46:19.903Z,9.70
2023-01-06T14:48:52.924Z,9.60
2023-01-06T14:51:23.116Z,9.60
2023-01-06T14:53:59.810Z,9.50
2023-01-06T14:56:34.528Z,9.50
2023-01-06T14:59:13.735Z,9.40
2023-01-06T15:01:44.768Z,9.30
2023-01-06T15:04:26.207Z,9.20
2023-01-06T15:07:02.923Z,9.20
2023-01-06T15:09:31.215Z,9.10
2023-01-06T15:12:00.873Z,9.10
2023-01-06T15:14:31.890Z,9.00
2023-01-06T15:17:03.406Z,9.10
2023-01-06T15:19:32.015Z,9.10
2023-01-06T15:22:02.037Z,9.10
2023-01-06T15:24:32.579Z,9.00
2023-01-06T15:27:07.859Z,9.00
2023-01-06T15:29:36.575Z,8.90
2023-01-06T15:32:05.800Z,8.80
2023-01-06T15:34:40.845Z,8.70
2023-01-06T15:37:16.501Z,8.60
2023-01-06T15:39:45.824Z,8.50
2023-01-06T15:42:18.047Z,8.40
2023-01-06T15:44:56.084Z,8.40
2023-01-06T15:47:31.108Z,8.40
2023-01-06T15:50:03.166Z,8.30
2023-01-06T15:52:33.841Z,8.30
2023-01-06T15:55:05.336Z,8.30
2023-01-06T15:57:37.916Z,8.30
2023-01-06T16:00:09.887Z,8.30
2023-01-06T16:02:38.885Z,8.40
2023-01-06T16:05:07.710Z,8.40
2023-01-06T16:07:40.287Z,8.40
2023-01-06T16:10:30.907Z,8.40
2023-01-06T16:13:21.726Z,8.40
2023-01-06T16:15:51.137Z,8.30
2023-01-06T16:18:27.512Z,8.20
2023-01-06T16:20:56.307Z,8.20
2023-01-06T16:23:30.576Z,8.20
2023-01-06T16:26:11.719Z,8.20
2023-01-06T16:28:46.800Z,8.20
2023-01-06T16:31:27.992Z,8.10
2023-01-06T16:33:56.233Z,8.10
2023-01-06T16:36:26.316Z,8.10
2023-01-06T16:38:54.545Z,8.10
2023-01-06T16:41:22.862Z,8.10
2023-01-06T16:43:52.541Z,8.20
2023-01-06T16:46:25.947Z,8.20
2023-01-06T16:48:56.222Z,8.30
2023-01-06T16:51:25.308Z,8.30
2023-01-06T16:53:56.242Z,8.30
2023-01-06T16:56:25.090Z,8.30
2023-01-06T16:58:56.846Z,8.30
2023-01-06T17:01:26.202Z,8.30
2023-01-06T17:03:57.567Z,8.30
2023-01-06T17:06:29.039Z,8.30
2023-01-06T17:09:01.105Z,8.30
2023-01-06T17:11:32.091Z,8.40
2023-01-06T17:14:04.849Z,8.40
2023-01-06T17:16:36.122Z,8.40
2023-01-06T17:19:15.564Z,8.50
2023-01-06T17:21:43.884Z,8.50
2023-01-06T17:24:16.098Z,8.50
2023-01-06T17:26:51.268Z,8.50
2023-01-06T17:29:22.846Z,8.50
2023-01-06T17:31:53.304Z,8.50
2023-01-06T17:34:25.093Z,8.50
2023-01-06T17:36:56.877Z,8.50
2023-01-06T17:39:27.454Z,8.40
2023-01-06T17:42:02.774Z,8.40
2023-01-06T17:44:38.035Z,8.40
2023-01-06T17:47:13.232Z,8.40
2023-01-06T17:49:41.708Z,8.40
2023-01-06T17:52:16.635Z,8.40
2023-01-06T17:55:11.169Z,8.40
2023-01-06T17:57:41.853Z,8.40
2023-01-06T18:00:26.250Z,8.40
2023-01-06T18:02:59.092Z,8.40
2023-01-06T18:05:55.476Z,8.30
2023-01-06T18:08:24.162Z,8.30
2023-01-06T18:10:54.436Z,8.30
2023-01-06T18:13:24.767Z,8.30
2023-01-06T18:15:57.565Z,8.30
2023-01-06T18:18:29.392Z,8.40
2023-01-06T18:21:00.223Z,8.40
2023-01-06T18:23:29.813Z,8.30
2023-01-06T18:26:01.056Z,8.30
2023-01-06T18:28:30.532Z,8.30
2023-01-06T18:31:03.378Z,8.20
2023-01-06T18:33:31.868Z,8.20
2023-01-06T18:36:00.364Z,8.20
2023-01-06T18:38:31.784Z,8.20
2023-01-06T18:40:59.934Z,8.20
2023-01-06T18:43:30.061Z,8.10
2023-01-06T18:46:02.778Z,8.10
2023-01-06T18:48:33.141Z,8.10
2023-01-06T18:51:02.761Z,8.10
2023-01-06T18:53:32.769Z,8.10
2023-01-06T18:56:04.316Z,8.10
2023-01-06T18:58:46.301Z,8.20
2023-01-06T19:01:20.770Z,8.10
2023-01-06T19:03:59.455Z,8.10
2023-01-06T19:06:39.783Z,8.00
2023-01-06T19:09:25.336Z,8.00
2023-01-06T19:12:00.735Z,8.00
2023-01-06T19:14:31.046Z,7.90
2023-01-06T19:17:00.641Z,7.90
2023-01-06T19:19:35.136Z,7.90
2023-01-06T19:22:16.078Z,7.80
2023-01-06T19:24:48.074Z,7.80
2023-01-06T19:27:42.266Z,7.80
2023-01-06T19:30:44.263Z,7.80
2023-01-06T19:33:27.276Z,7.80
2023-01-06T19:36:03.138Z,7.70
2023-01-06T19:38:35.004Z,7.70
2023-01-06T19:41:08.663Z,7.70
2023-01-06T19:43:37.674Z,7.60
2023-01-06T19:46:13.784Z,7.60
2023-01-06T19:48:43.599Z,7.60
2023-01-06T19:51:23.728Z,7.60
2023-01-06T19:53:54.476Z,7.50
2023-01-06T19:56:24.721Z,7.50
2023-01-06T19:58:55.048Z,7.50
2023-01-06T20:01:23.922Z,7.50
2023-01-06T20:03:55.775Z,7.50
2023-01-06T20:06:24.838Z,7.40
2023-01-06T20:08:53.777Z,7.40
2023-01-06T20:11:24.491Z,7.30
2023-01-06T20:13:53.179Z,7.30
2023-01-06T20:16:21.530Z,7.30
2023-01-06T20:18:50.709Z,7.20
2023-01-06T20:21:20.256Z,7.20
2023-01-06T20:23:48.426Z,7.20
2023-01-06T20:26:16.762Z,7.20
2023-01-06T20:28:45.296Z,7.10
2023-01-06T20:31:14.463Z,7.10
2023-01-06T20:33:42.638Z,7.10
2023-01-06T20:36:10.766Z,7.20
2023-01-06T20:38:40.237Z,7.10
2023-01-06T20:41:08.279Z,7.10
2023-01-06T20:43:36.322Z,7.10
2023-01-06T20:46:04.951Z,7.10
2023-01-06T20:48:33.238Z,7.10
2023-01-06T20:51:02.421Z,7.10
2023-01-06T20:53:30.506Z,7.10
2023-01-06T20:56:00.003Z,7.10
2023-01-06T20:58:28.334Z,7.00
2023-01-06T21:00:56.583Z,7.00
2023-01-06T21:03:24.789Z,7.00
2023-01-06T21:05:53.852Z,7.10
2023-01-06T21:08:22.084Z,7.10
2023-01-06T21:10:50.230Z,7.00
2023-01-06T21:13:24.026Z,7.00
2023-01-06T21:15:52.477Z,7.10
2023-01-06T21:18:23.175Z,7.00
2023-01-06T21:20:51.365Z,7.10
2023-01-06T21:23:19.459Z,7.00
2023-01-06T21:25:47.597Z,7.00
2023-01-06T21:28:16.066Z,7.00
2023-01-06T21:30:45.650Z,7.00
2023-01-06T21:33:14.560Z,7.00
2023-01-06T21:35:42.699Z,7.00
2023-01-06T21:38:11.900Z,7.00
2023-01-06T21:40:39.941Z,7.00
2023-01-06T21:43:09.893Z,7.00
2023-01-06T21:45:40.372Z,7.00
2023-01-06T21:48:11.247Z,7.00
2023-01-06T21:50:41.284Z,7.00
2023-01-06T21:53:10.482Z,7.00
2023-01-06T21:55:40.422Z,7.00
2023-01-06T21:58:08.754Z,6.90
2023-01-06T22:00:36.822Z,6.90
2023-01-06T22:03:05.754Z,7.00
2023-01-06T22:05:35.740Z,6.90
2023-01-06T22:08:04.225Z,6.90
2023-01-06T22:10:32.434Z,6.90
2023-01-06T22:13:01.046Z,6.90
2023-01-06T22:15:29.670Z,6.90
2023-01-06T22:17:59.553Z,6.80
2023-01-06T22:20:28.237Z,6.80
2023-01-06T22:22:58.129Z,6.80
2023-01-06T22:25:26.304Z,6.80
2023-01-06T22:27:54.447Z,6.70
2023-01-06T22:30:22.548Z,6.70
2023-01-06T22:32:51.996Z,6.60
2023-01-06T22:35:20.340Z,6.60
2023-01-06T22:37:48.471Z,6.60
2023-01-06T22:40:18.169Z,6.70
2023-01-06T22:42:46.268Z,6.60
2023-01-06T22:45:14.608Z,6.60
2023-01-06T22:47:43.006Z,6.60
2023-01-06T22:50:13.178Z,6.50
2023-01-06T22:52:41.376Z,6.50
2023-01-06T22:55:10.482Z,6.50
2023-01-06T22:57:40.075Z,6.50
2023-01-06T23:00:13.047Z,6.50
2023-01-06T23:02:41.565Z,6.50
2023-01-06T23:05:10.580Z,6.50
2023-01-06T23:07:39.944Z,6.50
2023-01-06T23:10:10.445Z,6.50
2023-01-06T23:12:41.718Z,6.40
2023-01-06T23:15:11.353Z,6.40
2023-01-06T23:17:39.417Z,6.40
2023-01-06T23:20:08.426Z,6.40
2023-01-06T23:22:37.240Z,6.40
2023-01-06T23:25:06.246Z,6.40
2023-01-06T23:27:34.348Z,6.30
2023-01-06T23:30:03.821Z,6.30
2023-01-06T23:32:31.908Z,6.30
2023-01-06T23:35:00.191Z,6.30
2023-01-06T23:37:28.181Z,6.30
2023-01-06T23:39:56.454Z,6.20
2023-01-06T23:42:24.854Z,6.20
2023-01-06T23:44:53.095Z,6.10
2023-01-06T23:47:23.129Z,6.00
2023-01-06T23:49:51.409Z,5.90
2023-01-06T23:52:19.766Z,6.00
2023-01-06T23:54:48.180Z,5.90
2023-01-06T23:57:17.060Z,5.90
2023-01-06T23:59:45.668Z,5.90
